KONM

Socorro Municipal Airport

Socorro, New Mexico, USA
METAR KONM 280035Z AUTO 17017G23KT 10SM CLR 32/M17 A2984 RMK AO2 T03201169
Observed Flight Rules
May-28 @ 00:35 UTC (31 minutes ago) Visual Flight Rules
Wind Visibility Clouds
170° at 17 knots
 Gusting to 23 knots
10 miles
  • Clear skies
Temperatures Readings
Current 32°C / 90°F
Dewpoint -17°C / 1°F
Humidity 3%
Altimeter 29.84" Hg
Pressure 1010 hPa
Elevation 1410
METAR KONM 280035Z AUTO 17017G23KT 10SM CLR 32/M17 A2984 RMK AO2 T03201169
Observed Flight Rules
May-28 @ 00:35 UTC
(31 minutes ago)
VFR
Wind Visibility
170° at 17 knots
 Gusting to 23 knots
10 miles
Clouds
  • Clear skies
Temperature Dewpoint
32°C / 90°F -17°C / 1°F
Humidity Altimeter Pressure
3% 29.84" Hg 1010 hPa